createdAt,value
2016-11-19T00:00:10.738Z,0
2016-11-19T00:01:10.707Z,0
2016-11-19T00:02:10.691Z,0
2016-11-19T00:03:10.980Z,0
2016-11-19T00:04:10.670Z,0
2016-11-19T00:05:10.946Z,0
2016-11-19T00:06:10.611Z,0
2016-11-19T00:07:10.617Z,0
2016-11-19T00:08:10.572Z,0
2016-11-19T00:09:11.207Z,0
2016-11-19T00:10:10.536Z,0
2016-11-19T00:11:10.513Z,0
2016-11-19T00:12:10.806Z,0
2016-11-19T00:13:10.473Z,0
2016-11-19T00:14:10.449Z,0
2016-11-19T00:15:10.449Z,0
2016-11-19T00:16:10.417Z,0
2016-11-19T00:17:10.396Z,0
2016-11-19T00:18:10.381Z,0
2016-11-19T00:19:10.351Z,0
2016-11-19T00:20:10.338Z,0
2016-11-19T00:21:10.317Z,0
2016-11-19T00:22:10.296Z,0
2016-11-19T00:23:10.276Z,0
2016-11-19T00:24:10.257Z,0
2016-11-19T00:25:10.236Z,0
2016-11-19T00:26:10.530Z,0
2016-11-19T00:27:10.201Z,0
2016-11-19T00:28:10.180Z,0
2016-11-19T00:29:10.160Z,0
2016-11-19T00:30:10.463Z,0
2016-11-19T00:31:10.125Z,0
2016-11-19T00:32:10.101Z,0
2016-11-19T00:33:10.090Z,0
2016-11-19T00:34:10.063Z,0
2016-11-19T00:35:10.044Z,0
2016-11-19T00:36:10.340Z,0
2016-11-19T00:37:10.001Z,0
2016-11-19T00:38:09.989Z,0
2016-11-19T00:39:09.963Z,0
2016-11-19T00:40:09.942Z,0
2016-11-19T00:41:09.927Z,0
2016-11-19T00:42:09.909Z,0
2016-11-19T00:43:09.892Z,0
2016-11-19T00:44:09.869Z,0
2016-11-19T00:45:09.852Z,0
2016-11-19T00:46:10.141Z,0
2016-11-19T00:47:09.819Z,0
2016-11-19T00:48:09.787Z,0
2016-11-19T00:49:09.766Z,0
2016-11-19T00:50:09.751Z,0
2016-11-19T00:51:09.733Z,0
2016-11-19T00:52:09.709Z,0
2016-11-19T00:53:10.007Z,0
2016-11-19T00:54:09.988Z,0
2016-11-19T00:55:09.651Z,0
2016-11-19T00:56:09.637Z,0
2016-11-19T00:57:09.618Z,0
2016-11-19T00:58:09.600Z,0
2016-11-19T00:59:09.575Z,0
2016-11-19T01:00:09.612Z,0
2016-11-19T01:01:09.540Z,0
2016-11-19T01:02:09.518Z,0
2016-11-19T01:03:09.494Z,0
2016-11-19T01:04:09.481Z,0
2016-11-19T01:05:09.458Z,0
2016-11-19T01:06:09.447Z,0
2016-11-19T01:07:09.421Z,0
2016-11-19T01:08:09.398Z,0
2016-11-19T01:09:09.382Z,0
2016-11-19T01:10:09.359Z,0
2016-11-19T01:11:09.663Z,0
2016-11-19T01:12:09.329Z,0
2016-11-19T01:13:09.308Z,0
2016-11-19T01:14:09.296Z,0
2016-11-19T01:15:09.272Z,0
2016-11-19T01:16:09.250Z,0
2016-11-19T01:17:09.222Z,0
2016-11-19T01:18:09.210Z,0
2016-11-19T01:19:09.185Z,0
2016-11-19T01:20:09.483Z,0
2016-11-19T01:21:09.148Z,0
2016-11-19T01:22:09.124Z,0
2016-11-19T01:23:09.116Z,0
2016-11-19T01:24:09.123Z,0
2016-11-19T01:25:09.075Z,0
2016-11-19T01:26:09.367Z,0
2016-11-19T01:27:09.032Z,0
2016-11-19T01:28:09.017Z,0
2016-11-19T01:29:08.982Z,0
2016-11-19T01:30:09.286Z,0
2016-11-19T01:31:08.984Z,0
2016-11-19T01:32:09.245Z,0
2016-11-19T01:33:08.912Z,0
2016-11-19T01:34:09.203Z,0
2016-11-19T01:35:08.871Z,0
2016-11-19T01:36:09.172Z,0
2016-11-19T01:37:09.144Z,0
2016-11-19T01:38:08.829Z,0
2016-11-19T01:39:08.996Z,0
2016-11-19T01:40:08.831Z,0
2016-11-19T01:41:08.758Z,0
2016-11-19T01:42:08.733Z,0
2016-11-19T01:43:08.707Z,0
2016-11-19T01:44:08.699Z,0
2016-11-19T01:45:09.037Z,0
2016-11-19T01:46:08.976Z,0
2016-11-19T01:47:08.666Z,0
2016-11-19T01:48:08.931Z,0
2016-11-19T01:49:08.605Z,0
2016-11-19T01:50:08.571Z,0
2016-11-19T01:51:08.557Z,0
2016-11-19T01:52:08.542Z,0
2016-11-19T01:53:08.856Z,0
2016-11-19T01:54:08.496Z,0
2016-11-19T01:55:08.793Z,0
2016-11-19T01:56:08.466Z,0
2016-11-19T01:57:08.436Z,0
2016-11-19T01:58:08.424Z,0
2016-11-19T01:59:08.397Z,0
2016-11-19T02:00:08.425Z,0
2016-11-19T02:01:08.359Z,0
2016-11-19T02:02:08.340Z,0
2016-11-19T02:03:08.319Z,0
2016-11-19T02:04:08.299Z,0
2016-11-19T02:05:08.282Z,0
2016-11-19T02:06:08.270Z,0
2016-11-19T02:07:08.247Z,0
2016-11-19T02:08:08.221Z,0
2016-11-19T02:09:08.206Z,0
2016-11-19T02:10:08.183Z,0
2016-11-19T02:11:08.163Z,0
2016-11-19T02:12:08.141Z,0
2016-11-19T02:13:08.121Z,0
2016-11-19T02:14:08.422Z,0
2016-11-19T02:15:08.090Z,0
2016-11-19T02:16:08.064Z,0
2016-11-19T02:17:08.355Z,0
2016-11-19T02:18:08.075Z,0
2016-11-19T02:19:08.001Z,0
2016-11-19T02:20:07.989Z,0
2016-11-19T02:21:08.277Z,0
2016-11-19T02:22:07.947Z,0
2016-11-19T02:23:07.927Z,0
2016-11-19T02:24:07.905Z,0
2016-11-19T02:25:07.882Z,0
2016-11-19T02:26:07.867Z,0
2016-11-19T02:27:08.162Z,0
2016-11-19T02:28:07.826Z,0
2016-11-19T02:29:08.123Z,0
2016-11-19T02:30:07.784Z,0
2016-11-19T02:31:08.135Z,0
2016-11-19T02:32:07.758Z,0
2016-11-19T02:33:07.740Z,0
2016-11-19T02:34:07.718Z,0
2016-11-19T02:35:08.024Z,0
2016-11-19T02:36:07.699Z,0
2016-11-19T02:37:07.655Z,0
2016-11-19T02:38:07.629Z,0
2016-11-19T02:39:07.619Z,0
2016-11-19T02:40:07.912Z,0
2016-11-19T02:41:08.018Z,0
2016-11-19T02:42:07.556Z,0
2016-11-19T02:43:07.537Z,0
2016-11-19T02:44:07.522Z,0
2016-11-19T02:45:07.816Z,0
2016-11-19T02:46:07.791Z,0
2016-11-19T02:47:07.462Z,0
2016-11-19T02:48:07.436Z,0
2016-11-19T02:49:07.415Z,0
2016-11-19T02:50:07.400Z,0
2016-11-19T02:51:07.724Z,0
2016-11-19T02:52:07.357Z,0
2016-11-19T02:53:07.970Z,0
2016-11-19T02:54:07.319Z,0
2016-11-19T02:55:07.301Z,0
2016-11-19T02:56:07.278Z,0
2016-11-19T02:57:07.268Z,0
2016-11-19T02:58:07.240Z,0
2016-11-19T02:59:07.536Z,0
2016-11-19T03:00:07.205Z,0
2016-11-19T03:01:07.502Z,0
2016-11-19T03:02:07.164Z,0
2016-11-19T03:03:07.197Z,0
2016-11-19T03:04:07.130Z,0
2016-11-19T03:05:07.106Z,0
2016-11-19T03:06:07.779Z,0
2016-11-19T03:07:07.068Z,0
2016-11-19T03:08:07.371Z,0
2016-11-19T03:09:07.346Z,0
2016-11-19T03:10:07.008Z,0
2016-11-19T03:11:06.996Z,0
2016-11-19T03:12:06.972Z,0
2016-11-19T03:13:06.956Z,0
2016-11-19T03:14:06.932Z,0
2016-11-19T03:15:06.915Z,0
2016-11-19T03:16:06.896Z,0
2016-11-19T03:17:06.872Z,0
2016-11-19T03:18:06.890Z,0
2016-11-19T03:19:07.148Z,0
2016-11-19T03:20:06.833Z,0
2016-11-19T03:21:06.797Z,0
2016-11-19T03:22:06.778Z,0
2016-11-19T03:23:06.756Z,0
2016-11-19T03:24:06.744Z,0
2016-11-19T03:25:06.722Z,0
2016-11-19T03:26:07.015Z,0
2016-11-19T03:27:06.691Z,0
2016-11-19T03:28:06.662Z,0
2016-11-19T03:29:06.967Z,0
2016-11-19T03:30:06.626Z,0
2016-11-19T03:31:06.636Z,0
2016-11-19T03:32:06.587Z,0
2016-11-19T03:33:06.569Z,0
2016-11-19T03:34:06.553Z,0
2016-11-19T03:35:06.839Z,0
2016-11-19T03:36:06.507Z,0
2016-11-19T03:37:06.484Z,0
2016-11-19T03:38:06.781Z,0
2016-11-19T03:39:06.854Z,0
2016-11-19T03:40:06.741Z,0
2016-11-19T03:41:06.445Z,0
2016-11-19T03:42:06.389Z,0
2016-11-19T03:43:06.373Z,0
2016-11-19T03:44:06.349Z,0
2016-11-19T03:45:06.649Z,0
2016-11-19T03:46:06.619Z,0
2016-11-19T03:47:06.296Z,0
2016-11-19T03:48:06.281Z,0
2016-11-19T03:49:06.250Z,0
2016-11-19T03:50:06.550Z,0
2016-11-19T03:51:06.840Z,0
2016-11-19T03:52:06.190Z,0
2016-11-19T03:53:06.494Z,0
2016-11-19T03:54:06.173Z,0
2016-11-19T03:55:06.484Z,0
2016-11-19T03:56:06.131Z,0
2016-11-19T03:57:06.107Z,0
2016-11-19T03:58:06.082Z,0
2016-11-19T03:59:06.061Z,0
2016-11-19T04:00:06.095Z,0
2016-11-19T04:01:06.053Z,0
2016-11-19T04:02:05.996Z,0
2016-11-19T04:03:06.297Z,0
2016-11-19T04:04:05.961Z,0
2016-11-19T04:05:05.951Z,0
2016-11-19T04:06:05.918Z,0
2016-11-19T04:07:05.903Z,0
2016-11-19T04:08:05.881Z,0
2016-11-19T04:09:05.856Z,0
2016-11-19T04:10:05.854Z,0
2016-11-19T04:11:06.147Z,0
2016-11-19T04:12:05.808Z,0
2016-11-19T04:13:06.101Z,0
2016-11-19T04:14:05.763Z,0
2016-11-19T04:15:06.061Z,0
2016-11-19T04:16:05.723Z,0
2016-11-19T04:17:05.704Z,0
2016-11-19T04:18:05.993Z,0
2016-11-19T04:19:05.671Z,0
2016-11-19T04:20:05.647Z,0
2016-11-19T04:21:05.623Z,0
2016-11-19T04:22:05.606Z,0
2016-11-19T04:23:05.591Z,0
2016-11-19T04:24:05.908Z,0
2016-11-19T04:25:05.546Z,0
2016-11-19T04:26:05.840Z,0
2016-11-19T04:27:05.539Z,0
2016-11-19T04:28:05.825Z,0
2016-11-19T04:29:05.499Z,0
2016-11-19T04:30:05.447Z,0
2016-11-19T04:31:05.426Z,0
2016-11-19T04:32:05.434Z,0
2016-11-19T04:33:05.756Z,0
2016-11-19T04:34:05.383Z,0
2016-11-19T04:35:05.346Z,0
2016-11-19T04:36:05.332Z,0
2016-11-19T04:37:05.306Z,0
2016-11-19T04:38:05.288Z,0
2016-11-19T04:39:05.262Z,0
2016-11-19T04:40:05.586Z,0
2016-11-19T04:41:05.223Z,0
2016-11-19T04:42:05.525Z,0
2016-11-19T04:43:05.186Z,0
2016-11-19T04:44:05.485Z,0
2016-11-19T04:45:05.146Z,0
2016-11-19T04:46:05.130Z,0
2016-11-19T04:47:05.107Z,0
2016-11-19T04:48:05.434Z,0
2016-11-19T04:49:05.066Z,0
2016-11-19T04:50:05.052Z,0
2016-11-19T04:51:05.031Z,0
2016-11-19T04:52:05.325Z,0
2016-11-19T04:53:04.998Z,0
2016-11-19T04:54:05.310Z,0
2016-11-19T04:55:04.952Z,0
2016-11-19T04:56:04.928Z,0
2016-11-19T04:57:04.909Z,0
2016-11-19T04:58:04.891Z,0
2016-11-19T04:59:04.877Z,0
2016-11-19T05:00:04.852Z,0
2016-11-19T05:01:04.841Z,0
2016-11-19T05:02:04.840Z,0
2016-11-19T05:03:04.797Z,0
2016-11-19T05:04:04.772Z,0
2016-11-19T05:05:04.749Z,0
2016-11-19T05:06:04.739Z,0
2016-11-19T05:07:04.716Z,0
2016-11-19T05:08:05.004Z,0
2016-11-19T05:09:05.034Z,0
2016-11-19T05:10:04.963Z,0
2016-11-19T05:11:04.633Z,0
2016-11-19T05:12:04.621Z,0
2016-11-19T05:13:04.909Z,0
2016-11-19T05:14:04.576Z,0
2016-11-19T05:15:04.563Z,0
2016-11-19T05:16:04.539Z,0
2016-11-19T05:17:04.847Z,0
2016-11-19T05:18:05.124Z,0
2016-11-19T05:19:04.482Z,0
2016-11-19T05:20:04.455Z,0
2016-11-19T05:21:04.434Z,0
2016-11-19T05:22:04.418Z,0
2016-11-19T05:23:04.404Z,0
2016-11-19T05:24:04.430Z,0
2016-11-19T05:25:04.358Z,0
2016-11-19T05:26:04.658Z,0
2016-11-19T05:27:04.320Z,0
2016-11-19T05:28:04.622Z,0
2016-11-19T05:29:04.276Z,0
2016-11-19T05:30:04.661Z,0
2016-11-19T05:31:04.237Z,0
2016-11-19T05:32:04.224Z,0
2016-11-19T05:33:04.204Z,0
2016-11-19T05:34:04.497Z,0
2016-11-19T05:35:04.156Z,0
2016-11-19T05:36:04.142Z,0
2016-11-19T05:37:04.124Z,0
2016-11-19T05:38:04.100Z,0
2016-11-19T05:39:04.084Z,0
2016-11-19T05:40:04.063Z,0
2016-11-19T05:41:04.046Z,0
2016-11-19T05:42:04.340Z,0
2016-11-19T05:43:04.004Z,0
2016-11-19T05:44:03.985Z,0
2016-11-19T05:45:03.975Z,0
2016-11-19T05:46:03.945Z,0
2016-11-19T05:47:03.929Z,0
2016-11-19T05:48:03.909Z,0
2016-11-19T05:49:04.200Z,0
2016-11-19T05:50:03.902Z,0
2016-11-19T05:51:03.847Z,0
2016-11-19T05:52:04.164Z,0
2016-11-19T05:53:04.121Z,0
2016-11-19T05:54:04.107Z,0
2016-11-19T05:55:04.086Z,0
2016-11-19T05:56:03.752Z,0
2016-11-19T05:57:03.731Z,0
2016-11-19T05:58:03.712Z,0
2016-11-19T05:59:04.008Z,0
2016-11-19T06:00:03.986Z,0
2016-11-19T06:01:03.657Z,0
2016-11-19T06:02:03.632Z,0
2016-11-19T06:03:03.615Z,0
2016-11-19T06:04:03.604Z,0
2016-11-19T06:05:03.572Z,0
2016-11-19T06:06:03.552Z,0
2016-11-19T06:07:03.538Z,0
2016-11-19T06:08:03.517Z,0
2016-11-19T06:09:03.813Z,0
2016-11-19T06:10:03.481Z,0
2016-11-19T06:11:03.459Z,0
2016-11-19T06:12:03.434Z,0
2016-11-19T06:13:03.429Z,0
2016-11-19T06:14:03.403Z,0
2016-11-19T06:15:03.735Z,0
2016-11-19T06:16:03.674Z,0
2016-11-19T06:17:03.674Z,0
2016-11-19T06:18:03.329Z,0
2016-11-19T06:19:03.621Z,0
2016-11-19T06:20:03.288Z,0
2016-11-19T06:21:03.579Z,0
2016-11-19T06:22:03.564Z,0
2016-11-19T06:23:03.549Z,0
2016-11-19T06:24:03.207Z,4
2016-11-19T06:25:03.185Z,4
2016-11-19T06:26:03.163Z,4
2016-11-19T06:27:03.148Z,4
2016-11-19T06:28:03.129Z,4
2016-11-19T06:29:03.114Z,4
2016-11-19T06:30:03.087Z,4
2016-11-19T06:31:03.077Z,8
2016-11-19T06:32:03.050Z,8
2016-11-19T06:33:03.339Z,8
2016-11-19T06:34:03.321Z,8
2016-11-19T06:35:03.006Z,12
2016-11-19T06:36:02.985Z,12
2016-11-19T06:37:02.964Z,16
2016-11-19T06:38:03.247Z,16
2016-11-19T06:39:02.916Z,20
2016-11-19T06:40:02.895Z,28
2016-11-19T06:41:02.882Z,28
2016-11-19T06:42:02.858Z,32
2016-11-19T06:43:02.838Z,40
2016-11-19T06:44:03.133Z,44
2016-11-19T06:45:02.808Z,52
2016-11-19T06:46:02.781Z,56
2016-11-19T06:47:02.760Z,60
2016-11-19T06:48:02.747Z,68
2016-11-19T06:49:02.726Z,76
2016-11-19T06:50:02.697Z,84
2016-11-19T06:51:03.008Z,88
2016-11-19T06:52:03.032Z,92
2016-11-19T06:53:02.644Z,96
2016-11-19T06:54:02.622Z,104
2016-11-19T06:55:02.606Z,112
2016-11-19T06:56:02.590Z,128
2016-11-19T06:57:02.567Z,132
2016-11-19T06:58:02.621Z,136
2016-11-19T06:59:02.869Z,148
2016-11-19T07:00:02.510Z,156
2016-11-19T07:01:02.488Z,172
2016-11-19T07:02:02.487Z,168
2016-11-19T07:03:02.452Z,152
2016-11-19T07:04:02.432Z,176
2016-11-19T07:05:02.417Z,216
2016-11-19T07:06:02.707Z,228
2016-11-19T07:07:02.384Z,212
2016-11-19T07:08:02.681Z,224
2016-11-19T07:09:02.651Z,256
2016-11-19T07:10:02.321Z,276
2016-11-19T07:11:02.298Z,276
2016-11-19T07:12:02.284Z,316
2016-11-19T07:13:02.259Z,332
2016-11-19T07:14:02.241Z,348
2016-11-19T07:15:02.222Z,348
2016-11-19T07:16:02.208Z,348
2016-11-19T07:17:02.189Z,352
2016-11-19T07:18:02.175Z,356
2016-11-19T07:19:02.162Z,368
2016-11-19T07:20:02.135Z,388
2016-11-19T07:21:02.457Z,432
2016-11-19T07:22:02.098Z,480
2016-11-19T07:23:02.093Z,520
2016-11-19T07:24:02.392Z,560
2016-11-19T07:25:02.039Z,560
2016-11-19T07:26:02.330Z,556
2016-11-19T07:27:02.003Z,564
2016-11-19T07:28:02.305Z,620
2016-11-19T07:29:01.961Z,628
2016-11-19T07:30:01.952Z,684
2016-11-19T07:31:01.932Z,680
2016-11-19T07:32:01.915Z,580
2016-11-19T07:33:02.199Z,496
2016-11-19T07:34:01.872Z,524
2016-11-19T07:35:01.850Z,484
2016-11-19T07:36:02.167Z,564
2016-11-19T07:37:01.829Z,624
2016-11-19T07:38:01.804Z,612
2016-11-19T07:39:02.096Z,720
2016-11-19T07:40:01.959Z,752
2016-11-19T07:41:01.743Z,780
2016-11-19T07:42:02.037Z,756
2016-11-19T07:43:01.703Z,740
2016-11-19T07:44:01.691Z,816
2016-11-19T07:45:01.694Z,740
2016-11-19T07:46:01.650Z,656
2016-11-19T07:47:01.629Z,792
2016-11-19T07:48:01.617Z,876
2016-11-19T07:49:01.913Z,1084
2016-11-19T07:50:01.599Z,1168
2016-11-19T07:51:01.902Z,1232
2016-11-19T07:52:01.849Z,1400
2016-11-19T07:53:01.832Z,1552
2016-11-19T07:54:01.525Z,1724
2016-11-19T07:55:01.531Z,1776
2016-11-19T07:56:02.094Z,1876
2016-11-19T07:57:01.763Z,1780
2016-11-19T07:58:01.438Z,1680
2016-11-19T07:59:01.410Z,1588
2016-11-19T08:00:01.393Z,1512
2016-11-19T08:01:01.378Z,1492
2016-11-19T08:02:01.668Z,1376
2016-11-19T08:03:01.338Z,1364
2016-11-19T08:04:01.949Z,1340
2016-11-19T08:05:01.620Z,1528
2016-11-19T08:06:01.281Z,1764
2016-11-19T08:07:01.585Z,1948
2016-11-19T08:08:01.277Z,2120
2016-11-19T08:09:01.266Z,2364
2016-11-19T08:10:01.210Z,2260
2016-11-19T08:11:01.186Z,2132
2016-11-19T08:12:01.490Z,1792
2016-11-19T08:13:01.154Z,1536
2016-11-19T08:14:01.447Z,1484
2016-11-19T08:15:01.437Z,1272
2016-11-19T08:16:01.124Z,1240
2016-11-19T08:17:01.097Z,1636
2016-11-19T08:18:01.070Z,1636
2016-11-19T08:19:01.042Z,1664
2016-11-19T08:20:01.047Z,1432
2016-11-19T08:21:01.007Z,1784
2016-11-19T08:22:01.624Z,1852
2016-11-19T08:23:01.606Z,2080
2016-11-19T08:24:00.956Z,1980
2016-11-19T08:25:00.952Z,1996
2016-11-19T08:26:00.919Z,1888
2016-11-19T08:27:00.909Z,2088
2016-11-19T08:28:01.200Z,2204
2016-11-19T08:29:00.901Z,2048
2016-11-19T08:30:00.853Z,1960
2016-11-19T08:31:01.152Z,1916
2016-11-19T08:32:00.815Z,2304
2016-11-19T08:33:00.794Z,2368
2016-11-19T08:34:00.781Z,2104
2016-11-19T08:35:00.760Z,1840
2016-11-19T08:36:00.742Z,1816
2016-11-19T08:37:01.078Z,1792
2016-11-19T08:38:00.710Z,1632
2016-11-19T08:39:00.694Z,1548
2016-11-19T08:40:00.989Z,1572
2016-11-19T08:41:00.681Z,1548
2016-11-19T08:42:00.638Z,1632
2016-11-19T08:43:00.656Z,1744
2016-11-19T08:44:00.604Z,1792
2016-11-19T08:45:00.590Z,1884
2016-11-19T08:46:00.565Z,1648
2016-11-19T08:47:00.910Z,1580
2016-11-19T08:48:00.921Z,1592
2016-11-19T08:49:00.844Z,1608
2016-11-19T08:50:00.822Z,1516
2016-11-19T08:51:01.123Z,1364
2016-11-19T08:52:00.781Z,1312
2016-11-19T08:53:00.762Z,1472
2016-11-19T08:54:00.434Z,1548
2016-11-19T08:55:00.733Z,1548
2016-11-19T08:56:00.399Z,1716
2016-11-19T08:57:00.371Z,1744
2016-11-19T08:58:00.363Z,1676
2016-11-19T08:59:00.339Z,1660
2016-11-19T09:00:00.320Z,1768
2016-11-19T09:01:00.620Z,1512
2016-11-19T09:02:00.290Z,1464
2016-11-19T09:03:00.320Z,1740
2016-11-19T09:04:00.251Z,2096
2016-11-19T09:05:00.561Z,2432
2016-11-19T09:06:00.217Z,2476
2016-11-19T09:07:00.203Z,2440
2016-11-19T09:08:00.216Z,2492
2016-11-19T09:09:00.475Z,2236
2016-11-19T09:10:00.180Z,2516
2016-11-19T09:11:00.132Z,2496
2016-11-19T09:12:00.109Z,2576
2016-11-19T09:13:00.090Z,3060
2016-11-19T09:14:00.406Z,3976
2016-11-19T09:15:00.055Z,4700
2016-11-19T09:16:00.046Z,5244
2016-11-19T09:17:00.020Z,5348
2016-11-19T09:18:00.003Z,5268
2016-11-19T09:18:59.997Z,5332
2016-11-19T09:20:00.285Z,5276
2016-11-19T09:21:00.278Z,5176
2016-11-19T09:21:59.940Z,4828
2016-11-19T09:23:00.238Z,4260
2016-11-19T09:23:59.901Z,3492
2016-11-19T09:24:59.884Z,3460
2016-11-19T09:25:59.870Z,3832
2016-11-19T09:26:59.861Z,4060
2016-11-19T09:28:29.709Z,4220
2016-11-19T09:28:59.823Z,4528
2016-11-19T09:29:59.797Z,5740
2016-11-19T09:30:59.784Z,6124
2016-11-19T09:31:59.762Z,5428
2016-11-19T09:32:59.769Z,4892
2016-11-19T09:34:00.045Z,5068
2016-11-19T09:34:59.721Z,4536
2016-11-19T09:35:59.702Z,3992
2016-11-19T09:36:59.684Z,4060
2016-11-19T09:37:59.660Z,3936
2016-11-19T09:38:59.646Z,4232
2016-11-19T09:39:59.829Z,4480
2016-11-19T09:40:59.926Z,4676
2016-11-19T09:41:59.596Z,5044
2016-11-19T09:42:59.587Z,5596
2016-11-19T09:43:59.563Z,5856
2016-11-19T09:44:59.870Z,5756
2016-11-19T09:45:59.529Z,5612
2016-11-19T09:46:59.510Z,5264
2016-11-19T09:47:59.497Z,5256
2016-11-19T09:48:59.477Z,5560
2016-11-19T09:49:59.466Z,4884
2016-11-19T09:50:59.447Z,3932
2016-11-19T09:51:59.425Z,3164
2016-11-19T09:52:59.417Z,3508
2016-11-19T09:53:59.758Z,3788
2016-11-19T09:54:59.374Z,3460
2016-11-19T09:55:59.367Z,3420
2016-11-19T09:56:59.353Z,3420
2016-11-19T09:57:59.329Z,3472
2016-11-19T09:58:59.310Z,3352
2016-11-19T09:59:59.297Z,2736
2016-11-19T10:00:59.282Z,2544
2016-11-19T10:01:59.266Z,3104
2016-11-19T10:02:59.244Z,3720
2016-11-19T10:03:59.275Z,3332
2016-11-19T10:04:59.220Z,3456
2016-11-19T10:05:59.193Z,3156
2016-11-19T10:06:59.173Z,2968
2016-11-19T10:07:59.159Z,2800
2016-11-19T10:08:59.156Z,2124
2016-11-19T10:09:59.128Z,2264
2016-11-19T10:10:59.113Z,3236
2016-11-19T10:11:59.403Z,3644
2016-11-19T10:12:59.081Z,3004
2016-11-19T10:13:59.435Z,2212
2016-11-19T10:14:59.050Z,2220
2016-11-19T10:15:59.025Z,2492
2016-11-19T10:16:59.005Z,2652
2016-11-19T10:17:58.990Z,3000
2016-11-19T10:18:58.975Z,3856
2016-11-19T10:19:58.971Z,4448
2016-11-19T10:20:59.568Z,4220
2016-11-19T10:21:59.233Z,4808
2016-11-19T10:22:58.904Z,5876
2016-11-19T10:23:58.891Z,7996
2016-11-19T10:24:58.867Z,9420
2016-11-19T10:25:58.867Z,10428
2016-11-19T10:26:58.834Z,9948
2016-11-19T10:27:59.132Z,9224
2016-11-19T10:28:58.805Z,7688
2016-11-19T10:29:58.795Z,7368
2016-11-19T10:30:58.768Z,13668
2016-11-19T10:31:58.762Z,11700
2016-11-19T10:32:59.052Z,8588
2016-11-19T10:33:58.718Z,5216
2016-11-19T10:34:58.702Z,3484
2016-11-19T10:35:58.680Z,2860
2016-11-19T10:36:58.666Z,1992
2016-11-19T10:37:58.986Z,1904
2016-11-19T10:38:58.633Z,2420
2016-11-19T10:39:59.296Z,3696
2016-11-19T10:40:58.598Z,5472
2016-11-19T10:41:58.583Z,5320
2016-11-19T10:42:58.565Z,3252
2016-11-19T10:43:58.547Z,2680
2016-11-19T10:44:58.847Z,2620
2016-11-19T10:45:58.515Z,1904
2016-11-19T10:46:58.492Z,1824
2016-11-19T10:47:58.482Z,2312
2016-11-19T10:48:58.463Z,3048
2016-11-19T10:49:58.443Z,5768
2016-11-19T10:50:58.426Z,5084
2016-11-19T10:51:58.426Z,4384
2016-11-19T10:52:58.709Z,4024
2016-11-19T10:53:58.381Z,3708
2016-11-19T10:54:58.674Z,3260
2016-11-19T10:55:58.342Z,3812
2016-11-19T10:56:58.327Z,4736
2016-11-19T10:57:58.308Z,4996
2016-11-19T10:58:58.284Z,5852
2016-11-19T10:59:58.590Z,5744
2016-11-19T11:00:58.256Z,4880
2016-11-19T11:01:58.237Z,4208
2016-11-19T11:02:58.220Z,4236
2016-11-19T11:03:58.204Z,4432
2016-11-19T11:04:58.201Z,5404
2016-11-19T11:05:58.182Z,7008
2016-11-19T11:06:58.156Z,6508
2016-11-19T11:07:58.137Z,6048
2016-11-19T11:08:58.116Z,5916
2016-11-19T11:09:58.094Z,4992
2016-11-19T11:10:58.419Z,4408
2016-11-19T11:11:58.064Z,3688
2016-11-19T11:12:58.045Z,3196
2016-11-19T11:13:58.344Z,3304
2016-11-19T11:14:58.011Z,3700
2016-11-19T11:15:58.012Z,3500
2016-11-19T11:16:57.987Z,3312
2016-11-19T11:17:57.968Z,3252
2016-11-19T11:18:57.942Z,2852
2016-11-19T11:19:57.931Z,2476
2016-11-19T11:20:57.911Z,2772
2016-11-19T11:21:57.891Z,2556
2016-11-19T11:22:57.873Z,2160
2016-11-19T11:23:57.857Z,1952
2016-11-19T11:24:58.154Z,1952
2016-11-19T11:25:57.823Z,2304
2016-11-19T11:26:57.805Z,2728
2016-11-19T11:27:57.798Z,2964
2016-11-19T11:28:57.772Z,3012
2016-11-19T11:29:57.750Z,3340
2016-11-19T11:30:57.734Z,3288
2016-11-19T11:31:57.726Z,2908
2016-11-19T11:32:57.704Z,3236
2016-11-19T11:33:57.711Z,3544
2016-11-19T11:34:58.001Z,3316
2016-11-19T11:35:57.994Z,3012
2016-11-19T11:36:57.638Z,2492
2016-11-19T11:37:57.609Z,2248
2016-11-19T11:38:57.593Z,2712
2016-11-19T11:39:57.788Z,3128
2016-11-19T11:40:57.563Z,3436
2016-11-19T11:41:57.542Z,3480
2016-11-19T11:42:57.846Z,4040
2016-11-19T11:43:57.509Z,4660
2016-11-19T11:44:57.810Z,4384
2016-11-19T11:45:57.481Z,3356
2016-11-19T11:46:57.776Z,2308
2016-11-19T11:47:57.441Z,1800
2016-11-19T11:48:57.428Z,1404
2016-11-19T11:49:57.717Z,1196
2016-11-19T11:50:57.393Z,1296
2016-11-19T11:51:57.683Z,1328
2016-11-19T11:52:57.359Z,2272
2016-11-19T11:53:57.654Z,3328
2016-11-19T11:54:57.315Z,4300
2016-11-19T11:55:57.666Z,5044
2016-11-19T11:56:57.285Z,5852
2016-11-19T11:57:57.592Z,5824
2016-11-19T11:58:57.254Z,4992
2016-11-19T11:59:57.232Z,4808
2016-11-19T12:00:57.217Z,5036
2016-11-19T12:01:57.198Z,5276
2016-11-19T12:02:57.214Z,5192
2016-11-19T12:03:57.173Z,5668
2016-11-19T12:04:57.473Z,6800
2016-11-19T12:05:57.161Z,6288
2016-11-19T12:06:57.117Z,6268
2016-11-19T12:07:57.122Z,7884
2016-11-19T12:08:57.078Z,9308
2016-11-19T12:09:57.061Z,6888
2016-11-19T12:10:57.051Z,4728
2016-11-19T12:11:57.030Z,3476
2016-11-19T12:12:57.045Z,2896
2016-11-19T12:13:57.001Z,2740
2016-11-19T12:14:56.988Z,2968
2016-11-19T12:15:57.286Z,2780
2016-11-19T12:16:56.954Z,3180
2016-11-19T12:17:56.941Z,3344
2016-11-19T12:18:57.244Z,3804
2016-11-19T12:19:56.904Z,4576
2016-11-19T12:20:57.511Z,4768
2016-11-19T12:21:56.874Z,5316
2016-11-19T12:22:56.899Z,5660
2016-11-19T12:23:56.845Z,5420
2016-11-19T12:24:56.815Z,4628
2016-11-19T12:25:56.827Z,4072
2016-11-19T12:26:56.782Z,4032
2016-11-19T12:27:56.766Z,3972
2016-11-19T12:28:57.100Z,4048
2016-11-19T12:29:56.732Z,3976
2016-11-19T12:30:56.746Z,4228
2016-11-19T12:31:57.009Z,4700
2016-11-19T12:32:57.025Z,4708
2016-11-19T12:33:56.976Z,4192
2016-11-19T12:34:56.652Z,3592
2016-11-19T12:35:56.635Z,3012
2016-11-19T12:36:56.620Z,2756
2016-11-19T12:37:56.596Z,2984
2016-11-19T12:38:56.595Z,3016
2016-11-19T12:39:56.564Z,3116
2016-11-19T12:40:56.554Z,3412
2016-11-19T12:41:56.569Z,3636
2016-11-19T12:42:56.511Z,4108
2016-11-19T12:43:56.812Z,4736
2016-11-19T12:44:56.477Z,4196
2016-11-19T12:45:56.460Z,3584
2016-11-19T12:46:56.446Z,4464
2016-11-19T12:47:56.428Z,5540
2016-11-19T12:48:56.416Z,5464
2016-11-19T12:49:56.707Z,4360
2016-11-19T12:50:56.378Z,4596
2016-11-19T12:51:56.368Z,6008
2016-11-19T12:52:56.676Z,7648
2016-11-19T12:53:56.641Z,7516
2016-11-19T12:54:56.621Z,15712
2016-11-19T12:55:56.346Z,7956
2016-11-19T12:56:56.280Z,9088
2016-11-19T12:57:56.261Z,9540
2016-11-19T12:58:56.250Z,20896
2016-11-19T12:59:56.235Z,10068
2016-11-19T13:00:56.211Z,17344
2016-11-19T13:01:56.195Z,6736
2016-11-19T13:02:56.212Z,5376
2016-11-19T13:03:56.165Z,5504
2016-11-19T13:04:56.147Z,15488
2016-11-19T13:05:56.163Z,13984
2016-11-19T13:06:56.123Z,12800
2016-11-19T13:07:56.108Z,12960
2016-11-19T13:08:56.094Z,13472
2016-11-19T13:09:56.074Z,15264
2016-11-19T13:10:56.068Z,16576
2016-11-19T13:11:56.051Z,18080
2016-11-19T13:12:56.068Z,16288
2016-11-19T13:13:56.341Z,20032
2016-11-19T13:14:56.015Z,18848
2016-11-19T13:15:55.992Z,20416
2016-11-19T13:16:55.984Z,21088
2016-11-19T13:17:55.970Z,22176
2016-11-19T13:18:55.959Z,12240
2016-11-19T13:19:55.954Z,20384
2016-11-19T13:20:55.945Z,20640
2016-11-19T13:21:55.948Z,13640
2016-11-19T13:22:55.918Z,16068
2016-11-19T13:23:55.959Z,3324
2016-11-19T13:24:55.896Z,2996
2016-11-19T13:25:55.920Z,3012
2016-11-19T13:26:56.196Z,3256
2016-11-19T13:27:56.186Z,3648
2016-11-19T13:28:55.853Z,3352
2016-11-19T13:29:56.523Z,3008
2016-11-19T13:30:55.834Z,3256
2016-11-19T13:31:55.827Z,4064
2016-11-19T13:32:55.809Z,3236
2016-11-19T13:33:55.813Z,2412
2016-11-19T13:34:55.789Z,2284
2016-11-19T13:35:55.777Z,2304
2016-11-19T13:36:55.764Z,2460
2016-11-19T13:37:55.752Z,2784
2016-11-19T13:38:55.737Z,3384
2016-11-19T13:39:56.238Z,3464
2016-11-19T13:40:55.706Z,3180
2016-11-19T13:41:55.698Z,3248
2016-11-19T13:42:55.683Z,3760
2016-11-19T13:43:55.668Z,3192
2016-11-19T13:44:55.654Z,2352
2016-11-19T13:45:55.643Z,2356
2016-11-19T13:46:56.255Z,2412
2016-11-19T13:47:55.610Z,2512
2016-11-19T13:48:55.591Z,2584
2016-11-19T13:49:55.896Z,2776
2016-11-19T13:50:55.567Z,3440
2016-11-19T13:51:55.544Z,3008
2016-11-19T13:52:55.534Z,2908
2016-11-19T13:53:55.866Z,3228
2016-11-19T13:54:55.525Z,3276
2016-11-19T13:55:56.115Z,2920
2016-11-19T13:56:55.790Z,3168
2016-11-19T13:57:55.465Z,2836
2016-11-19T13:58:55.440Z,2456
2016-11-19T13:59:55.421Z,2692